M/V Ave Maria — WDD5063 — position and weather

sailwx.info

Track history (hours):
 
Tides and Currents Weather Stations Pressure Air Temp Water Temp Dewpoint Dewpoint Depression Visibility Wind Speed Wind Dir Waves Ship Positions

M/V Ave Maria

Owner: Marquette Transportation Company Gulf-Inland, LLC, Jefferson, LA. More information available from US FCC via Universal Licensing System and Coast Guard Vessel Documentation Center.

Last reported at 2018-Feb-21 08:10 UTC. Time now 2018-Feb-23 20:23 UTC.
Position N 29°33' W 090°28'.

Length 205 m; draft 2.7 m.

Type: Towing. MMSI: 367126410.

Date/timePositionNaut miles runAvg speedWind from/ knotsBaromVisibWave heightAir tempDewpointWater temp
2018-Feb-21 08:10N 29°33' W 090°28'1 5.1
2018-Feb-21 08:00N 29°34' W 090°29'3 5.1
2018-Feb-21 07:30N 29°34' W 090°32'2 4.9
2018-Feb-21 07:00N 29°34' W 090°34'2 4.7
2018-Feb-21 06:30N 29°35' W 090°37'2 5.0
2018-Feb-21 06:00N 29°36' W 090°40'2 4.8
2018-Feb-21 05:30N 29°37' W 090°42'2 4.2
2018-Feb-21 05:00N 29°35' W 090°43'1 2.3
2018-Feb-21 04:30N 29°34' W 090°44'2 3.7
2018-Feb-21 04:00N 29°33' W 090°45'0 0.8
2018-Feb-21 03:30N 29°32' W 090°46'1 2.2
2018-Feb-21 03:00N 29°32' W 090°47'2 3.9
2018-Feb-21 02:30N 29°32' W 090°49'62 4.5
2018-Feb-20 12:35N 29°50' W 091°58'0 5.7
2018-Feb-20 12:30N 29°50' W 091°58'3 5.5
2018-Feb-20 12:00N 29°49' W 092°01'3 5.3
2018-Feb-20 11:30N 29°48' W 092°04'3 5.5
2018-Feb-20 11:00N 29°47' W 092°07'3 5.6
2018-Feb-20 10:30N 29°47' W 092°10'2 4.9
2018-Feb-20 10:00N 29°47' W 092°13'2 4.1
2018-Feb-20 09:30N 29°48' W 092°15'3 5.4
2018-Feb-20 09:00N 29°50' W 092°18'3 5.1
2018-Feb-20 08:30N 29°51' W 092°20'2 4.6
2018-Feb-20 07:58N 29°52' W 092°23'3 4.8
2018-Feb-20 07:20N 29°53' W 092°26'32 4.9
2018-Feb-20 00:53N 29°56' W 093°02'2 4.6
2018-Feb-20 00:30N 29°56' W 093°04'2 4.5
2018-Feb-19 23:58N 29°56' W 093°07'2 4.7
2018-Feb-19 23:30N 29°56' W 093°10'2 4.8
2018-Feb-19 23:00N 29°58' W 093°11'2 4.7
2018-Feb-19 22:30N 29°60' W 093°13'2 4.2
2018-Feb-19 22:00N 30°02' W 093°14'2 4.0
2018-Feb-19 21:30N 30°03' W 093°16'2 4.0
2018-Feb-19 21:00N 30°05' W 093°17'2 3.4
2018-Feb-19 20:30N 30°06' W 093°18'2 3.8
2018-Feb-19 20:00N 30°05' W 093°20'2 3.8
2018-Feb-19 19:30N 30°04' W 093°22'1 3.0
2018-Feb-19 19:00N 30°04' W 093°23'3 5.3
2018-Feb-19 18:30N 30°04' W 093°26'3 5.1
2018-Feb-19 18:00N 30°04' W 093°29'3 5.1
2018-Feb-19 17:30N 30°04' W 093°32'3 5.1
2018-Feb-19 17:00N 30°04' W 093°35'3 5.4
2018-Feb-19 16:30N 30°04' W 093°38'3 6.1
2018-Feb-19 16:00N 30°03' W 093°42'2 4.8
2018-Feb-19 15:30N 30°02' W 093°44'3 5.9
2018-Feb-19 15:00N 29°60' W 093°46'3 6.2
2018-Feb-19 14:30N 29°59' W 093°50'2 3.8
2018-Feb-19 14:00N 29°59' W 093°52'3 6.8
2018-Feb-19 13:30N 29°59' W 093°56'3 5.5
2018-Feb-19 13:00N 30°01' W 093°59'1 1.6
2018-Feb-19 12:30N 30°01' W 093°59'0 0.0
2018-Feb-19 12:00N 30°01' W 093°59'0 0.1
2018-Feb-19 11:30N 30°01' W 093°59'0 0.1
2018-Feb-19 11:00N 30°01' W 093°59'0 0.0
2018-Feb-19 10:30N 30°01' W 093°59'0 0.0
2018-Feb-19 10:00N 30°01' W 093°59'0 0.1
2018-Feb-19 09:30N 30°01' W 093°59'0 0.8
2018-Feb-19 09:00N 30°01' W 093°59'0 0.4
2018-Feb-19 08:30N 30°01' W 093°59'0 0.0
2018-Feb-19 08:00N 30°01' W 093°59'0 0.0
2018-Feb-19 07:30N 30°01' W 093°59'0 0.0
2018-Feb-19 07:00N 30°01' W 093°59'0 0.0
2018-Feb-19 06:30N 30°01' W 093°59'0 0.0
2018-Feb-19 06:00N 30°01' W 093°59'0 0.0
2018-Feb-19 05:30N 30°01' W 093°59'0 0.0
2018-Feb-19 05:00N 30°01' W 093°59'0 0.0
2018-Feb-19 04:30N 30°01' W 093°59'0 0.0
2018-Feb-19 04:00N 30°01' W 093°59'0 0.0
2018-Feb-19 03:30N 30°01' W 093°59'0 0.0
2018-Feb-19 03:00N 30°01' W 093°59'0 0.0
2018-Feb-19 02:30N 30°01' W 093°59'0 0.0
2018-Feb-19 01:59N 30°01' W 093°59'0 0.0
2018-Feb-19 01:30N 30°01' W 093°59'0 0.0
2018-Feb-19 01:00N 30°01' W 093°59'0 0.0
2018-Feb-19 00:30N 30°01' W 093°59'0 0.0
2018-Feb-19 00:00N 30°01' W 093°59'0 0.0
2018-Feb-18 23:30N 30°01' W 093°59'0 0.0
2018-Feb-18 23:00N 30°01' W 093°59'0 0.0
2018-Feb-18 22:30N 30°01' W 093°59'0 0.0
2018-Feb-18 22:00N 30°01' W 093°59'0 0.0
2018-Feb-18 21:30N 30°01' W 093°59'0 0.0
2018-Feb-18 21:00N 30°01' W 093°59'0 0.0
2018-Feb-18 20:30N 30°01' W 093°59'0 0.0
2018-Feb-18 20:00N 30°01' W 093°59'0 0.0
2018-Feb-18 19:30N 30°01' W 093°59'0 0.0
2018-Feb-18 19:00N 30°01' W 093°59'0 0.1
2018-Feb-18 18:30N 30°01' W 093°59'0 0.1
2018-Feb-18 18:00N 30°01' W 093°59'0 0.0
2018-Feb-18 17:30N 30°01' W 093°59'0 0.0
2018-Feb-18 17:00N 30°01' W 093°59'1 1.4
2018-Feb-18 16:31N 30°01' W 093°59'1 1.0
2018-Feb-18 16:00N 30°01' W 093°59'0 0.0
2018-Feb-18 15:30N 30°01' W 093°59'0 0.0
2018-Feb-18 15:00N 30°01' W 093°59'0 0.0
2018-Feb-18 14:29N 30°01' W 093°59'0 0.0
2018-Feb-18 14:00N 30°01' W 093°59'0 0.0
2018-Feb-18 13:30N 30°01' W 093°59'0 0.0
2018-Feb-18 13:00N 30°01' W 093°59'0 0.0
2018-Feb-18 12:30N 30°01' W 093°59'0 0.0
2018-Feb-18 12:00N 30°01' W 093°59'0 0.0
2018-Feb-18 11:30N 30°01' W 093°59'0 0.0
2018-Feb-18 11:00N 30°01' W 093°59'0 0.0
2018-Feb-18 10:30N 30°01' W 093°59'0 0.0
2018-Feb-18 10:00N 30°01' W 093°59'0 0.0
2018-Feb-18 09:30N 30°01' W 093°59'0 0.0
2018-Feb-18 09:00N 30°01' W 093°59'0 0.0
2018-Feb-18 08:30N 30°01' W 093°59'0 0.0
2018-Feb-18 08:00N 30°01' W 093°59'0 0.0
2018-Feb-18 07:30N 30°01' W 093°59'0 0.0
2018-Feb-18 07:00N 30°01' W 093°59'0 0.0
2018-Feb-18 06:30N 30°01' W 093°59'0 0.0
2018-Feb-18 06:00N 30°01' W 093°59'0 0.0
2018-Feb-18 05:30N 30°01' W 093°59'0 0.0
2018-Feb-18 05:00N 30°01' W 093°59'0 0.0
2018-Feb-18 04:30N 30°01' W 093°59'0 0.0
2018-Feb-18 04:00N 30°01' W 093°59'0 0.0
2018-Feb-18 03:30N 30°01' W 093°59'0 0.0
2018-Feb-18 02:59N 30°01' W 093°59'0 1.0
2018-Feb-18 02:30N 30°01' W 093°59'1 1.4
2018-Feb-18 02:00N 30°01' W 093°59'3 5.1
2018-Feb-18 01:30N 29°60' W 093°56'3 6.6
2018-Feb-18 01:00N 29°59' W 093°52'1 2.7
2018-Feb-18 00:30N 29°58' W 093°52'0 0.1
2018-Feb-18 00:00N 29°58' W 093°52'0 0.1
2018-Feb-17 23:30N 29°58' W 093°52'0 0.0
2018-Feb-17 23:00N 29°58' W 093°52'0 0.0
2018-Feb-17 22:30N 29°58' W 093°52'0 0.0
2018-Feb-17 22:00N 29°58' W 093°52'0 0.0
2018-Feb-17 21:30N 29°58' W 093°52'0 0.8
2018-Feb-17 21:00N 29°58' W 093°51'0 0.0
2018-Feb-17 20:30N 29°58' W 093°51'0 0.0
2018-Feb-17 20:00N 29°58' W 093°51'0 0.0
2018-Feb-17 19:30N 29°58' W 093°51'0 0.0
2018-Feb-17 19:00N 29°58' W 093°51'0 0.9
2018-Feb-17 18:30N 29°57' W 093°52'0 0.2
2018-Feb-17 18:00N 29°58' W 093°52'0 0.1
2018-Feb-17 17:30N 29°58' W 093°52'2 3.9
2018-Feb-17 17:00N 29°59' W 093°53'4 7.3
2018-Feb-17 16:30N 30°00' W 093°57'2 4.4
2018-Feb-17 16:00N 30°01' W 093°60'0 0.2
2018-Feb-17 15:30N 30°01' W 093°59'0 0.0
2018-Feb-17 15:00N 30°01' W 093°59'0 0.0
2018-Feb-17 14:29N 30°01' W 093°59'0 0.0
2018-Feb-17 14:00N 30°01' W 093°59'0 0.1
2018-Feb-17 13:30N 30°01' W 093°60'2 4.4
2018-Feb-17 13:01N 30°02' W 094°02'0 0.3
2018-Feb-17 12:30N 30°02' W 094°02'0 0.0
2018-Feb-17 12:00N 30°02' W 094°02'0 0.1
2018-Feb-17 11:30N 30°02' W 094°02'0 0.0
2018-Feb-17 11:00N 30°02' W 094°02'0 0.0
2018-Feb-17 10:30N 30°02' W 094°02'0 0.0
2018-Feb-17 10:00N 30°02' W 094°02'0 0.0
2018-Feb-17 09:30N 30°02' W 094°02'0 0.0
2018-Feb-17 09:00N 30°02' W 094°02'0 0.0
2018-Feb-17 08:30N 30°02' W 094°02'0 0.0
2018-Feb-17 08:00N 30°02' W 094°02'0 0.0
2018-Feb-17 07:30N 30°02' W 094°02'0 0.0
2018-Feb-17 06:59N 30°02' W 094°02'0 0.0
2018-Feb-17 06:30N 30°02' W 094°02'0 0.0
2018-Feb-17 06:00N 30°02' W 094°02'0 0.0
2018-Feb-17 05:30N 30°02' W 094°02'0 0.0
2018-Feb-17 04:52N 30°02' W 094°02'0 0.0
2018-Feb-17 04:30N 30°02' W 094°02'0 0.0
2018-Feb-17 03:55N 30°02' W 094°02'0 0.0
2018-Feb-17 03:29N 30°02' W 094°02'0 0.1
2018-Feb-17 03:00N 30°02' W 094°02'0 0.1
2018-Feb-17 02:30N 30°02' W 094°02'0 0.0
2018-Feb-17 02:00N 30°02' W 094°02'0 0.0
2018-Feb-17 01:30N 30°02' W 094°02'0 0.0
2018-Feb-17 01:00N 30°02' W 094°02'0 0.0
2018-Feb-17 00:29N 30°02' W 094°02'0 0.0
2018-Feb-17 00:00N 30°02' W 094°02'0 0.0
2018-Feb-16 23:30N 30°02' W 094°02'0 0.0
2018-Feb-16 23:00N 30°02' W 094°02'0 0.0
2018-Feb-16 22:30N 30°02' W 094°02'0 0.0
2018-Feb-16 21:59N 30°02' W 094°02'0 0.0
2018-Feb-16 21:30N 30°02' W 094°02'0 0.0
2018-Feb-16 20:58N 30°02' W 094°02'0 0.0
2018-Feb-16 20:30N 30°02' W 094°02'0 0.0
2018-Feb-16 20:00N 30°02' W 094°02'0 0.0
2018-Feb-16 19:30N 30°02' W 094°02'0 0.0
2018-Feb-16 19:00N 30°02' W 094°02'0 0.0
2018-Feb-16 18:30N 30°02' W 094°02'0 0.0
2018-Feb-16 18:00N 30°02' W 094°02'0 0.0
2018-Feb-16 17:30N 30°02' W 094°02'0 0.0
2018-Feb-16 17:00N 30°02' W 094°02'0 0.0
2018-Feb-16 16:29N 30°02' W 094°02'0 0.0
2018-Feb-16 16:00N 30°02' W 094°02'0 0.0
2018-Feb-16 15:30N 30°02' W 094°02'0 0.0
2018-Feb-16 14:59N 30°02' W 094°02'0 0.0
2018-Feb-16 14:30N 30°02' W 094°02'0 0.0
2018-Feb-16 14:00N 30°02' W 094°02'0 0.0
2018-Feb-16 13:30N 30°02' W 094°02'0 0.0
2018-Feb-16 13:00N 30°02' W 094°02'0 0.0
2018-Feb-16 12:30N 30°02' W 094°02'0 0.0
2018-Feb-16 12:00N 30°02' W 094°02'0 0.0
2018-Feb-16 11:30N 30°02' W 094°02'0 0.0
2018-Feb-16 11:00N 30°02' W 094°02'0 0.0
2018-Feb-16 10:30N 30°02' W 094°02'0 0.0
2018-Feb-16 10:00N 30°02' W 094°02'0 0.0
2018-Feb-16 09:30N 30°02' W 094°02'0 0.0
2018-Feb-16 09:00N 30°02' W 094°02'0 0.0
2018-Feb-16 08:30N 30°02' W 094°02'0 0.0
2018-Feb-16 08:00N 30°02' W 094°02'0 0.0
2018-Feb-16 07:30N 30°02' W 094°02'0 0.0
2018-Feb-16 07:00N 30°02' W 094°02'0 0.0
2018-Feb-16 06:30N 30°02' W 094°02'0 0.0
2018-Feb-16 05:59N 30°02' W 094°02'0 0.0
2018-Feb-16 05:29N 30°02' W 094°02'0 0.0
2018-Feb-16 04:56N 30°02' W 094°02'0 0.0
2018-Feb-16 04:30N 30°02' W 094°02'0 0.0
2018-Feb-16 04:00N 30°02' W 094°02'0 0.0
2018-Feb-16 03:30N 30°02' W 094°02'0 0.0
2018-Feb-16 03:00N 30°02' W 094°02'0 0.0
2018-Feb-16 02:30N 30°02' W 094°02'0 0.0
2018-Feb-16 02:00N 30°02' W 094°02'0 0.0
2018-Feb-16 01:30N 30°02' W 094°02'0 0.0
2018-Feb-16 00:53N 30°02' W 094°02'0 0.0
2018-Feb-16 00:27N 30°02' W 094°02'0 0.0
2018-Feb-15 23:59N 30°02' W 094°02'0 0.1
2018-Feb-15 23:30N 30°02' W 094°02'0 0.1
2018-Feb-15 23:00N 30°02' W 094°02'0 0.0
2018-Feb-15 22:30N 30°02' W 094°02'1 1.1
2018-Feb-15 22:00N 30°01' W 094°02'2 3.2
2018-Feb-15 21:30N 30°01' W 093°60'1 2.9
2018-Feb-15 21:00N 30°01' W 093°58'1 2.6
2018-Feb-15 20:30N 29°60' W 093°57'2 3.0
2018-Feb-15 19:59N 29°59' W 093°55'1 2.9
2018-Feb-15 19:30N 29°59' W 093°54'1 2.8
2018-Feb-15 19:00N 29°59' W 093°52'1 2.1
2018-Feb-15 18:30N 29°58' W 093°51'1 1.0
2018-Feb-15 18:00N 29°58' W 093°52'0 0.0
2018-Feb-15 17:30N 29°58' W 093°52'0 0.0
2018-Feb-15 17:00N 29°58' W 093°52'0 0.9
2018-Feb-15 16:30N 29°58' W 093°52'0 0.0
2018-Feb-15 16:00N 29°58' W 093°52'0 0.0
2018-Feb-15 15:30N 29°58' W 093°52'0 0.0
2018-Feb-15 15:00N 29°58' W 093°52'0 0.0
2018-Feb-15 14:30N 29°58' W 093°52'0 0.0
2018-Feb-15 14:00N 29°58' W 093°52'0 0.0
2018-Feb-15 13:30N 29°58' W 093°52'0 0.0
2018-Feb-15 13:00N 29°58' W 093°52'0 0.0
2018-Feb-15 12:30N 29°58' W 093°52'0 0.0
2018-Feb-15 12:00N 29°58' W 093°52'0 0.0
2018-Feb-15 11:30N 29°58' W 093°52'0 0.0
2018-Feb-15 11:00N 29°58' W 093°52'0 0.0
2018-Feb-15 10:30N 29°58' W 093°52'0 0.0
2018-Feb-15 10:00N 29°58' W 093°52'0 0.0
2018-Feb-15 09:30N 29°58' W 093°52'0 0.0
2018-Feb-15 09:00N 29°58' W 093°52'0 0.0
2018-Feb-15 08:30N 29°58' W 093°52'0 0.0
2018-Feb-15 08:00N 29°58' W 093°52'0 0.0
2018-Feb-15 07:30N 29°58' W 093°52'0 0.0
2018-Feb-15 07:00N 29°58' W 093°52'0 0.0
2018-Feb-15 06:30N 29°58' W 093°52'0 0.0
2018-Feb-15 06:00N 29°58' W 093°52'0 0.0
2018-Feb-15 05:30N 29°58' W 093°52'0 0.0
2018-Feb-15 05:00N 29°58' W 093°52'0 0.0
2018-Feb-15 04:30N 29°58' W 093°52'0 0.0
2018-Feb-15 04:00N 29°58' W 093°52'0 0.0
2018-Feb-15 03:30N 29°58' W 093°52'0 0.0
2018-Feb-15 03:00N 29°58' W 093°52'0 0.0
2018-Feb-15 02:30N 29°58' W 093°52'0 0.0
2018-Feb-15 02:00N 29°58' W 093°52'0 0.0
2018-Feb-15 01:30N 29°58' W 093°52'0 0.0
2018-Feb-15 01:00N 29°58' W 093°52'0 0.0
2018-Feb-15 00:30N 29°58' W 093°52'0 0.0
2018-Feb-15 00:00N 29°58' W 093°52'0 0.0
2018-Feb-14 23:30N 29°58' W 093°52'0 0.0
2018-Feb-14 23:00N 29°58' W 093°52'0 0.0
2018-Feb-14 22:30N 29°58' W 093°52'0 0.0
2018-Feb-14 22:00N 29°58' W 093°52'0 0.0
2018-Feb-14 21:30N 29°58' W 093°52'0 0.0
2018-Feb-14 21:00N 29°58' W 093°52'0 0.0
2018-Feb-14 20:30N 29°58' W 093°52'0 0.0
2018-Feb-14 20:00N 29°58' W 093°52'0 0.2
2018-Feb-14 19:30N 29°58' W 093°52'0 0.2
2018-Feb-14 19:00N 29°58' W 093°52'0 0.0
2018-Feb-14 18:30N 29°58' W 093°52'0 0.0
2018-Feb-14 18:00N 29°58' W 093°52'0 0.0
2018-Feb-14 17:30N 29°58' W 093°52'0 0.0
2018-Feb-14 17:00N 29°58' W 093°52'0 0.0
2018-Feb-14 16:30N 29°58' W 093°52'0 0.0
2018-Feb-14 16:00N 29°58' W 093°52'0 0.0
2018-Feb-14 15:30N 29°58' W 093°52'0 0.0
2018-Feb-14 15:00N 29°58' W 093°52'0 0.0
2018-Feb-14 14:30N 29°58' W 093°52'0 0.0
2018-Feb-14 14:00N 29°58' W 093°52'0 0.0
2018-Feb-14 13:30N 29°58' W 093°52'0 0.0
2018-Feb-14 13:00N 29°58' W 093°52'0 0.0
2018-Feb-14 12:30N 29°58' W 093°52'0 0.0
2018-Feb-14 12:00N 29°58' W 093°52'0 0.0
2018-Feb-14 11:30N 29°58' W 093°52'0 0.0
2018-Feb-14 11:00N 29°58' W 093°52'0 0.0
2018-Feb-14 10:30N 29°58' W 093°52'0 0.0
2018-Feb-14 10:00N 29°58' W 093°52'0 0.0
2018-Feb-14 09:30N 29°58' W 093°52'0 0.0
2018-Feb-14 09:00N 29°58' W 093°52'0 0.0
2018-Feb-14 08:30N 29°58' W 093°52'0 0.0
2018-Feb-14 08:00N 29°58' W 093°52'0 0.0
2018-Feb-14 07:30N 29°58' W 093°52'0 0.0
2018-Feb-14 07:00N 29°58' W 093°52'0 0.0
2018-Feb-14 06:30N 29°58' W 093°52'0 0.0
2018-Feb-14 06:00N 29°58' W 093°52'0 0.0
2018-Feb-14 05:29N 29°58' W 093°52'0 0.0
2018-Feb-14 05:00N 29°58' W 093°52'0 0.0
2018-Feb-14 04:30N 29°58' W 093°52'0 0.0
2018-Feb-14 04:00N 29°58' W 093°52'0 0.0
2018-Feb-14 03:30N 29°58' W 093°52'0 0.0
2018-Feb-14 03:00N 29°58' W 093°52'0 0.0
2018-Feb-14 02:30N 29°58' W 093°52'0 0.0
2018-Feb-14 02:00N 29°58' W 093°52'0 0.0
2018-Feb-14 01:30N 29°58' W 093°52'0 0.0
2018-Feb-14 01:00N 29°58' W 093°52'0 0.0
2018-Feb-14 00:30N 29°58' W 093°52'0 0.1
2018-Feb-14 00:01N 29°58' W 093°52'0 0.1
2018-Feb-13 23:30N 29°58' W 093°52'0 0.0
2018-Feb-13 23:00N 29°58' W 093°52'0 0.0
2018-Feb-13 22:30N 29°58' W 093°52'0 0.0
2018-Feb-13 22:00N 29°58' W 093°52'0 0.0
2018-Feb-13 21:30N 29°58' W 093°52'0 0.0
2018-Feb-13 21:00N 29°58' W 093°52'0 0.0
2018-Feb-13 20:30N 29°58' W 093°52'0 0.0
2018-Feb-13 20:00N 29°58' W 093°52'0 0.0
2018-Feb-13 19:30N 29°58' W 093°52'0 0.0
2018-Feb-13 19:00N 29°58' W 093°52'0 0.0
2018-Feb-13 18:30N 29°58' W 093°52'0 0.0
2018-Feb-13 18:00N 29°58' W 093°52'0 0.0
2018-Feb-13 17:30N 29°58' W 093°52'0 0.0
2018-Feb-13 17:00N 29°58' W 093°52'0 0.0
2018-Feb-13 16:30N 29°58' W 093°52'0 0.0
2018-Feb-13 16:00N 29°58' W 093°52'0 0.0
2018-Feb-13 15:30N 29°58' W 093°52'0 0.0
2018-Feb-13 15:00N 29°58' W 093°52'0 0.0
2018-Feb-13 14:30N 29°58' W 093°52'0 0.0
2018-Feb-13 14:00N 29°58' W 093°52'0 0.0
2018-Feb-13 13:30N 29°58' W 093°52'0 0.0
2018-Feb-13 13:00N 29°58' W 093°52'0 0.0
2018-Feb-13 12:30N 29°58' W 093°52'0 0.0
2018-Feb-13 12:00N 29°58' W 093°52'0 0.0
2018-Feb-13 11:30N 29°58' W 093°52'0 0.0
2018-Feb-13 11:00N 29°58' W 093°52'0 0.0
2018-Feb-13 10:30N 29°58' W 093°52'0 0.0
2018-Feb-13 10:00N 29°58' W 093°52'0 0.0
2018-Feb-13 09:30N 29°58' W 093°52'0 0.0
2018-Feb-13 09:00N 29°58' W 093°52'0 0.0
2018-Feb-13 08:30N 29°58' W 093°52'0 0.0
2018-Feb-13 08:00N 29°58' W 093°52'0 0.0
2018-Feb-13 07:30N 29°58' W 093°52'0 0.0
2018-Feb-13 07:00N 29°58' W 093°52'0 0.0
2018-Feb-13 06:30N 29°58' W 093°52'0 0.0
2018-Feb-13 06:00N 29°58' W 093°52'0 0.0
2018-Feb-13 05:30N 29°58' W 093°52'0 0.0
2018-Feb-13 05:00N 29°58' W 093°52'0 0.0
2018-Feb-13 04:30N 29°58' W 093°52'0 0.0
2018-Feb-13 04:00N 29°58' W 093°52'0 0.0
2018-Feb-13 03:30N 29°58' W 093°52'0 0.0
2018-Feb-13 03:00N 29°58' W 093°52'0 0.0
2018-Feb-13 02:30N 29°58' W 093°52'0 0.0
2018-Feb-13 02:00N 29°58' W 093°52'0 0.0
2018-Feb-13 01:30N 29°58' W 093°52'0 0.0
2018-Feb-13 01:00N 29°58' W 093°52'0 0.0
2018-Feb-13 00:30N 29°58' W 093°52'0 0.0
2018-Feb-13 00:00N 29°58' W 093°52'0 0.0
2018-Feb-12 23:30N 29°58' W 093°52'0 0.0
2018-Feb-12 23:00N 29°58' W 093°52'0 0.0
2018-Feb-12 22:30N 29°58' W 093°52'0 0.0
2018-Feb-12 22:00N 29°58' W 093°52'0 0.0
2018-Feb-12 21:30N 29°58' W 093°52'0 0.0
2018-Feb-12 21:00N 29°58' W 093°52'0 0.0
2018-Feb-12 20:30N 29°58' W 093°52'0 0.3
2018-Feb-12 20:00N 29°58' W 093°51'0 0.0
2018-Feb-12 19:31N 29°58' W 093°51'0 0.0
2018-Feb-12 19:00N 29°58' W 093°51'0 0.0
2018-Feb-12 18:30N 29°58' W 093°51'0 0.3
2018-Feb-12 18:00N 29°58' W 093°52'0 0.0
2018-Feb-12 17:30N 29°58' W 093°52'0 0.0
2018-Feb-12 17:00N 29°58' W 093°52'0 0.0
2018-Feb-12 16:30N 29°58' W 093°52'0 0.0
2018-Feb-12 16:00N 29°58' W 093°52'0 0.0
2018-Feb-12 15:30N 29°58' W 093°52'1 2.3
2018-Feb-12 15:00N 29°59' W 093°52'3 7.0
2018-Feb-12 14:30N 29°60' W 093°56'3 5.6
2018-Feb-12 14:00N 30°01' W 093°59'3 5.6
2018-Feb-12 13:30N 30°03' W 094°02'3 6.1
2018-Feb-12 13:00N 30°05' W 094°04'1 1.4
2018-Feb-12 12:30N 30°05' W 094°05'0 0.0
2018-Feb-12 12:00N 30°05' W 094°05'0 0.0
2018-Feb-12 11:30N 30°05' W 094°05'0 0.0
2018-Feb-12 11:00N 30°05' W 094°05'0 0.0
2018-Feb-12 10:30N 30°05' W 094°05'0 0.0
2018-Feb-12 10:00N 30°05' W 094°05'0 0.0
2018-Feb-12 09:30N 30°05' W 094°05'0 0.0
2018-Feb-12 09:00N 30°05' W 094°05'0 0.0
2018-Feb-12 08:30N 30°05' W 094°05'0 0.0
2018-Feb-12 08:00N 30°05' W 094°05'0 0.0
2018-Feb-12 07:30N 30°05' W 094°05'0 0.0
2018-Feb-12 07:00N 30°05' W 094°05'0 0.0
2018-Feb-12 06:30N 30°05' W 094°05'0 0.0
2018-Feb-12 06:00N 30°05' W 094°05'0 0.0
2018-Feb-12 05:30N 30°05' W 094°05'0 0.0
2018-Feb-12 05:00N 30°05' W 094°05'0 0.0
2018-Feb-12 04:30N 30°05' W 094°05'0 0.0
2018-Feb-12 04:00N 30°05' W 094°05'0 0.0
2018-Feb-12 03:30N 30°05' W 094°05'0 0.0
2018-Feb-12 03:00N 30°05' W 094°05'0 0.0
2018-Feb-12 02:30N 30°05' W 094°05'0 0.0
2018-Feb-12 02:00N 30°05' W 094°05'0 0.0
2018-Feb-12 01:30N 30°05' W 094°05'0 0.0
2018-Feb-12 01:00N 30°05' W 094°05'0 0.0
2018-Feb-12 00:30N 30°05' W 094°05'0 0.0
2018-Feb-12 00:00N 30°05' W 094°05'0 0.0
2018-Feb-11 23:30N 30°05' W 094°05'0 0.0
2018-Feb-11 23:00N 30°05' W 094°05'0 0.0
2018-Feb-11 22:30N 30°05' W 094°05'0 0.0
2018-Feb-11 22:00N 30°05' W 094°05'0 0.0
2018-Feb-11 21:30N 30°05' W 094°05'0 0.0
2018-Feb-11 21:00N 30°05' W 094°05'0 0.0
2018-Feb-11 20:26N 30°05' W 094°05'0 0.0
2018-Feb-11 20:00N 30°05' W 094°05'0 0.0
2018-Feb-11 19:30N 30°05' W 094°05'0 0.4
2018-Feb-11 19:00N 30°05' W 094°05'2 4.2
2018-Feb-11 18:30N 30°04' W 094°03'2 3.9
2018-Feb-11 18:00N 30°02' W 094°02'2 3.3
2018-Feb-11 17:30N 30°01' W 094°01'2 4.8
2018-Feb-11 17:00N 30°01' W 093°58'2 4.3
2018-Feb-11 16:30N 29°59' W 093°56'2 4.8
2018-Feb-11 16:00N 29°59' W 093°53'1 2.8
2018-Feb-11 15:30N 29°59' W 093°52'2 3.6
2018-Feb-11 15:01N 29°57' W 093°52'1 1.3
2018-Feb-11 14:30N 29°57' W 093°52'0 0.0
2018-Feb-11 14:00N 29°57' W 093°52'0 0.0
2018-Feb-11 13:30N 29°57' W 093°52'0 0.0
2018-Feb-11 13:00N 29°57' W 093°52'0 0.0
2018-Feb-11 12:30N 29°57' W 093°52'0 0.0
2018-Feb-11 12:00N 29°57' W 093°52'0 0.0
2018-Feb-11 11:30N 29°57' W 093°52'0 0.0
2018-Feb-11 11:00N 29°57' W 093°52'0 0.0
2018-Feb-11 10:30N 29°57' W 093°52'0 0.0
2018-Feb-11 10:00N 29°57' W 093°52'0 0.0
2018-Feb-11 09:30N 29°57' W 093°52'0 0.0
2018-Feb-11 09:00N 29°57' W 093°52'0 0.0
2018-Feb-11 08:30N 29°57' W 093°52'  
Track history (hours):
 
Tides and Currents Weather Stations Pressure Air Temp Water Temp Dewpoint Dewpoint Depression Visibility Wind Speed Wind Dir Waves Ship Positions

M/V Ave Maria

Owner: Marquette Transportation Company Gulf-Inland, LLC, Jefferson, LA. More information available from US FCC via Universal Licensing System and Coast Guard Vessel Documentation Center.

Last reported at 2018-Feb-21 08:10 UTC. Time now 2018-Feb-23 20:23 UTC.
Position N 29°33' W 090°28'.

Length 205 m; draft 2.7 m.

Type: Towing. MMSI: 367126410.

Date/timePositionNaut miles runAvg speedWind from/ knotsBaromVisibWave heightAir tempDewpointWater temp
2018-Feb-21 08:10N 29°33' W 090°28'1 5.1
2018-Feb-21 08:00N 29°34' W 090°29'3 5.1
2018-Feb-21 07:30N 29°34' W 090°32'2 4.9
2018-Feb-21 07:00N 29°34' W 090°34'2 4.7
2018-Feb-21 06:30N 29°35' W 090°37'2 5.0
2018-Feb-21 06:00N 29°36' W 090°40'2 4.8
2018-Feb-21 05:30N 29°37' W 090°42'2 4.2
2018-Feb-21 05:00N 29°35' W 090°43'1 2.3
2018-Feb-21 04:30N 29°34' W 090°44'2 3.7
2018-Feb-21 04:00N 29°33' W 090°45'0 0.8
2018-Feb-21 03:30N 29°32' W 090°46'1 2.2
2018-Feb-21 03:00N 29°32' W 090°47'2 3.9
2018-Feb-21 02:30N 29°32' W 090°49'62 4.5
2018-Feb-20 12:35N 29°50' W 091°58'0 5.7
2018-Feb-20 12:30N 29°50' W 091°58'3 5.5
2018-Feb-20 12:00N 29°49' W 092°01'3 5.3
2018-Feb-20 11:30N 29°48' W 092°04'3 5.5
2018-Feb-20 11:00N 29°47' W 092°07'3 5.6
2018-Feb-20 10:30N 29°47' W 092°10'2 4.9
2018-Feb-20 10:00N 29°47' W 092°13'2 4.1
2018-Feb-20 09:30N 29°48' W 092°15'3 5.4
2018-Feb-20 09:00N 29°50' W 092°18'3 5.1
2018-Feb-20 08:30N 29°51' W 092°20'2 4.6
2018-Feb-20 07:58N 29°52' W 092°23'3 4.8
2018-Feb-20 07:20N 29°53' W 092°26'32 4.9
2018-Feb-20 00:53N 29°56' W 093°02'2 4.6
2018-Feb-20 00:30N 29°56' W 093°04'2 4.5
2018-Feb-19 23:58N 29°56' W 093°07'2 4.7
2018-Feb-19 23:30N 29°56' W 093°10'2 4.8
2018-Feb-19 23:00N 29°58' W 093°11'2 4.7
2018-Feb-19 22:30N 29°60' W 093°13'2 4.2
2018-Feb-19 22:00N 30°02' W 093°14'2 4.0
2018-Feb-19 21:30N 30°03' W 093°16'2 4.0
2018-Feb-19 21:00N 30°05' W 093°17'2 3.4
2018-Feb-19 20:30N 30°06' W 093°18'2 3.8
2018-Feb-19 20:00N 30°05' W 093°20'2 3.8
2018-Feb-19 19:30N 30°04' W 093°22'1 3.0
2018-Feb-19 19:00N 30°04' W 093°23'3 5.3
2018-Feb-19 18:30N 30°04' W 093°26'3 5.1
2018-Feb-19 18:00N 30°04' W 093°29'3 5.1
2018-Feb-19 17:30N 30°04' W 093°32'3 5.1
2018-Feb-19 17:00N 30°04' W 093°35'3 5.4
2018-Feb-19 16:30N 30°04' W 093°38'3 6.1
2018-Feb-19 16:00N 30°03' W 093°42'2 4.8
2018-Feb-19 15:30N 30°02' W 093°44'3 5.9
2018-Feb-19 15:00N 29°60' W 093°46'3 6.2
2018-Feb-19 14:30N 29°59' W 093°50'2 3.8
2018-Feb-19 14:00N 29°59' W 093°52'3 6.8
2018-Feb-19 13:30N 29°59' W 093°56'3 5.5
2018-Feb-19 13:00N 30°01' W 093°59'1 1.6
2018-Feb-19 12:30N 30°01' W 093°59'0 0.0
2018-Feb-19 12:00N 30°01' W 093°59'0 0.1
2018-Feb-19 11:30N 30°01' W 093°59'0 0.1
2018-Feb-19 11:00N 30°01' W 093°59'0 0.0
2018-Feb-19 10:30N 30°01' W 093°59'0 0.0
2018-Feb-19 10:00N 30°01' W 093°59'0 0.1
2018-Feb-19 09:30N 30°01' W 093°59'0 0.8
2018-Feb-19 09:00N 30°01' W 093°59'0 0.4
2018-Feb-19 08:30N 30°01' W 093°59'0 0.0
2018-Feb-19 08:00N 30°01' W 093°59'0 0.0
2018-Feb-19 07:30N 30°01' W 093°59'0 0.0
2018-Feb-19 07:00N 30°01' W 093°59'0 0.0
2018-Feb-19 06:30N 30°01' W 093°59'0 0.0
2018-Feb-19 06:00N 30°01' W 093°59'0 0.0
2018-Feb-19 05:30N 30°01' W 093°59'0 0.0
2018-Feb-19 05:00N 30°01' W 093°59'0 0.0
2018-Feb-19 04:30N 30°01' W 093°59'0 0.0
2018-Feb-19 04:00N 30°01' W 093°59'0 0.0
2018-Feb-19 03:30N 30°01' W 093°59'0 0.0
2018-Feb-19 03:00N 30°01' W 093°59'0 0.0
2018-Feb-19 02:30N 30°01' W 093°59'0 0.0
2018-Feb-19 01:59N 30°01' W 093°59'0 0.0
2018-Feb-19 01:30N 30°01' W 093°59'0 0.0
2018-Feb-19 01:00N 30°01' W 093°59'0 0.0
2018-Feb-19 00:30N 30°01' W 093°59'0 0.0
2018-Feb-19 00:00N 30°01' W 093°59'0 0.0
2018-Feb-18 23:30N 30°01' W 093°59'0 0.0
2018-Feb-18 23:00N 30°01' W 093°59'0 0.0
2018-Feb-18 22:30N 30°01' W 093°59'0 0.0
2018-Feb-18 22:00N 30°01' W 093°59'0 0.0
2018-Feb-18 21:30N 30°01' W 093°59'0 0.0
2018-Feb-18 21:00N 30°01' W 093°59'0 0.0
2018-Feb-18 20:30N 30°01' W 093°59'0 0.0
2018-Feb-18 20:00N 30°01' W 093°59'0 0.0
2018-Feb-18 19:30N 30°01' W 093°59'0 0.0
2018-Feb-18 19:00N 30°01' W 093°59'0 0.1
2018-Feb-18 18:30N 30°01' W 093°59'0 0.1
2018-Feb-18 18:00N 30°01' W 093°59'0 0.0
2018-Feb-18 17:30N 30°01' W 093°59'0 0.0
2018-Feb-18 17:00N 30°01' W 093°59'1 1.4
2018-Feb-18 16:31N 30°01' W 093°59'1 1.0
2018-Feb-18 16:00N 30°01' W 093°59'0 0.0
2018-Feb-18 15:30N 30°01' W 093°59'0 0.0
2018-Feb-18 15:00N 30°01' W 093°59'0 0.0
2018-Feb-18 14:29N 30°01' W 093°59'0 0.0
2018-Feb-18 14:00N 30°01' W 093°59'0 0.0
2018-Feb-18 13:30N 30°01' W 093°59'0 0.0
2018-Feb-18 13:00N 30°01' W 093°59'0 0.0
2018-Feb-18 12:30N 30°01' W 093°59'0 0.0
2018-Feb-18 12:00N 30°01' W 093°59'0 0.0
2018-Feb-18 11:30N 30°01' W 093°59'0 0.0
2018-Feb-18 11:00N 30°01' W 093°59'0 0.0
2018-Feb-18 10:30N 30°01' W 093°59'0 0.0
2018-Feb-18 10:00N 30°01' W 093°59'0 0.0
2018-Feb-18 09:30N 30°01' W 093°59'0 0.0
2018-Feb-18 09:00N 30°01' W 093°59'0 0.0
2018-Feb-18 08:30N 30°01' W 093°59'0 0.0
2018-Feb-18 08:00N 30°01' W 093°59'0 0.0
2018-Feb-18 07:30N 30°01' W 093°59'0 0.0
2018-Feb-18 07:00N 30°01' W 093°59'0 0.0
2018-Feb-18 06:30N 30°01' W 093°59'0 0.0
2018-Feb-18 06:00N 30°01' W 093°59'0 0.0
2018-Feb-18 05:30N 30°01' W 093°59'0 0.0
2018-Feb-18 05:00N 30°01' W 093°59'0 0.0
2018-Feb-18 04:30N 30°01' W 093°59'0 0.0
2018-Feb-18 04:00N 30°01' W 093°59'0 0.0
2018-Feb-18 03:30N 30°01' W 093°59'0 0.0
2018-Feb-18 02:59N 30°01' W 093°59'0 1.0
2018-Feb-18 02:30N 30°01' W 093°59'1 1.4
2018-Feb-18 02:00N 30°01' W 093°59'3 5.1
2018-Feb-18 01:30N 29°60' W 093°56'3 6.6
2018-Feb-18 01:00N 29°59' W 093°52'1 2.7
2018-Feb-18 00:30N 29°58' W 093°52'0 0.1
2018-Feb-18 00:00N 29°58' W 093°52'0 0.1
2018-Feb-17 23:30N 29°58' W 093°52'0 0.0
2018-Feb-17 23:00N 29°58' W 093°52'0 0.0
2018-Feb-17 22:30N 29°58' W 093°52'0 0.0
2018-Feb-17 22:00N 29°58' W 093°52'0 0.0
2018-Feb-17 21:30N 29°58' W 093°52'0 0.8
2018-Feb-17 21:00N 29°58' W 093°51'0 0.0
2018-Feb-17 20:30N 29°58' W 093°51'0 0.0
2018-Feb-17 20:00N 29°58' W 093°51'0 0.0
2018-Feb-17 19:30N 29°58' W 093°51'0 0.0
2018-Feb-17 19:00N 29°58' W 093°51'0 0.9
2018-Feb-17 18:30N 29°57' W 093°52'0 0.2
2018-Feb-17 18:00N 29°58' W 093°52'0 0.1
2018-Feb-17 17:30N 29°58' W 093°52'2 3.9
2018-Feb-17 17:00N 29°59' W 093°53'4 7.3
2018-Feb-17 16:30N 30°00' W 093°57'2 4.4
2018-Feb-17 16:00N 30°01' W 093°60'0 0.2
2018-Feb-17 15:30N 30°01' W 093°59'0 0.0
2018-Feb-17 15:00N 30°01' W 093°59'0 0.0
2018-Feb-17 14:29N 30°01' W 093°59'0 0.0
2018-Feb-17 14:00N 30°01' W 093°59'0 0.1
2018-Feb-17 13:30N 30°01' W 093°60'2 4.4
2018-Feb-17 13:01N 30°02' W 094°02'0 0.3
2018-Feb-17 12:30N 30°02' W 094°02'0 0.0
2018-Feb-17 12:00N 30°02' W 094°02'0 0.1
2018-Feb-17 11:30N 30°02' W 094°02'0 0.0
2018-Feb-17 11:00N 30°02' W 094°02'0 0.0
2018-Feb-17 10:30N 30°02' W 094°02'0 0.0
2018-Feb-17 10:00N 30°02' W 094°02'0 0.0
2018-Feb-17 09:30N 30°02' W 094°02'0 0.0
2018-Feb-17 09:00N 30°02' W 094°02'0 0.0
2018-Feb-17 08:30N 30°02' W 094°02'0 0.0
2018-Feb-17 08:00N 30°02' W 094°02'0 0.0
2018-Feb-17 07:30N 30°02' W 094°02'0 0.0
2018-Feb-17 06:59N 30°02' W 094°02'0 0.0
2018-Feb-17 06:30N 30°02' W 094°02'0 0.0
2018-Feb-17 06:00N 30°02' W 094°02'0 0.0
2018-Feb-17 05:30N 30°02' W 094°02'0 0.0
2018-Feb-17 04:52N 30°02' W 094°02'0 0.0
2018-Feb-17 04:30N 30°02' W 094°02'0 0.0
2018-Feb-17 03:55N 30°02' W 094°02'0 0.0
2018-Feb-17 03:29N 30°02' W 094°02'0 0.1
2018-Feb-17 03:00N 30°02' W 094°02'0 0.1
2018-Feb-17 02:30N 30°02' W 094°02'0 0.0
2018-Feb-17 02:00N 30°02' W 094°02'0 0.0
2018-Feb-17 01:30N 30°02' W 094°02'0 0.0
2018-Feb-17 01:00N 30°02' W 094°02'0 0.0
2018-Feb-17 00:29N 30°02' W 094°02'0 0.0
2018-Feb-17 00:00N 30°02' W 094°02'0 0.0
2018-Feb-16 23:30N 30°02' W 094°02'0 0.0
2018-Feb-16 23:00N 30°02' W 094°02'0 0.0
2018-Feb-16 22:30N 30°02' W 094°02'0 0.0
2018-Feb-16 21:59N 30°02' W 094°02'0 0.0
2018-Feb-16 21:30N 30°02' W 094°02'0 0.0
2018-Feb-16 20:58N 30°02' W 094°02'0 0.0
2018-Feb-16 20:30N 30°02' W 094°02'0 0.0
2018-Feb-16 20:00N 30°02' W 094°02'0 0.0
2018-Feb-16 19:30N 30°02' W 094°02'0 0.0
2018-Feb-16 19:00N 30°02' W 094°02'0 0.0
2018-Feb-16 18:30N 30°02' W 094°02'0 0.0
2018-Feb-16 18:00N 30°02' W 094°02'0 0.0
2018-Feb-16 17:30N 30°02' W 094°02'0 0.0
2018-Feb-16 17:00N 30°02' W 094°02'0 0.0
2018-Feb-16 16:29N 30°02' W 094°02'0 0.0
2018-Feb-16 16:00N 30°02' W 094°02'0 0.0
2018-Feb-16 15:30N 30°02' W 094°02'0 0.0
2018-Feb-16 14:59N 30°02' W 094°02'0 0.0
2018-Feb-16 14:30N 30°02' W 094°02'0 0.0
2018-Feb-16 14:00N 30°02' W 094°02'0 0.0
2018-Feb-16 13:30N 30°02' W 094°02'0 0.0
2018-Feb-16 13:00N 30°02' W 094°02'0 0.0
2018-Feb-16 12:30N 30°02' W 094°02'0 0.0
2018-Feb-16 12:00N 30°02' W 094°02'0 0.0
2018-Feb-16 11:30N 30°02' W 094°02'0 0.0
2018-Feb-16 11:00N 30°02' W 094°02'0 0.0
2018-Feb-16 10:30N 30°02' W 094°02'0 0.0
2018-Feb-16 10:00N 30°02' W 094°02'0 0.0
2018-Feb-16 09:30N 30°02' W 094°02'0 0.0
2018-Feb-16 09:00N 30°02' W 094°02'0 0.0
2018-Feb-16 08:30N 30°02' W 094°02'0 0.0
2018-Feb-16 08:00N 30°02' W 094°02'0 0.0
2018-Feb-16 07:30N 30°02' W 094°02'0 0.0
2018-Feb-16 07:00N 30°02' W 094°02'0 0.0
2018-Feb-16 06:30N 30°02' W 094°02'0 0.0
2018-Feb-16 05:59N 30°02' W 094°02'0 0.0
2018-Feb-16 05:29N 30°02' W 094°02'0 0.0
2018-Feb-16 04:56N 30°02' W 094°02'0 0.0
2018-Feb-16 04:30N 30°02' W 094°02'0 0.0
2018-Feb-16 04:00N 30°02' W 094°02'0 0.0
2018-Feb-16 03:30N 30°02' W 094°02'0 0.0
2018-Feb-16 03:00N 30°02' W 094°02'0 0.0
2018-Feb-16 02:30N 30°02' W 094°02'0 0.0
2018-Feb-16 02:00N 30°02' W 094°02'0 0.0
2018-Feb-16 01:30N 30°02' W 094°02'0 0.0
2018-Feb-16 00:53N 30°02' W 094°02'0 0.0
2018-Feb-16 00:27N 30°02' W 094°02'0 0.0
2018-Feb-15 23:59N 30°02' W 094°02'0 0.1
2018-Feb-15 23:30N 30°02' W 094°02'0 0.1
2018-Feb-15 23:00N 30°02' W 094°02'0 0.0
2018-Feb-15 22:30N 30°02' W 094°02'1 1.1
2018-Feb-15 22:00N 30°01' W 094°02'2 3.2
2018-Feb-15 21:30N 30°01' W 093°60'1 2.9
2018-Feb-15 21:00N 30°01' W 093°58'1 2.6
2018-Feb-15 20:30N 29°60' W 093°57'2 3.0
2018-Feb-15 19:59N 29°59' W 093°55'1 2.9
2018-Feb-15 19:30N 29°59' W 093°54'1 2.8
2018-Feb-15 19:00N 29°59' W 093°52'1 2.1
2018-Feb-15 18:30N 29°58' W 093°51'1 1.0
2018-Feb-15 18:00N 29°58' W 093°52'0 0.0
2018-Feb-15 17:30N 29°58' W 093°52'0 0.0
2018-Feb-15 17:00N 29°58' W 093°52'0 0.9
2018-Feb-15 16:30N 29°58' W 093°52'0 0.0
2018-Feb-15 16:00N 29°58' W 093°52'0 0.0
2018-Feb-15 15:30N 29°58' W 093°52'0 0.0
2018-Feb-15 15:00N 29°58' W 093°52'0 0.0
2018-Feb-15 14:30N 29°58' W 093°52'0 0.0
2018-Feb-15 14:00N 29°58' W 093°52'0 0.0
2018-Feb-15 13:30N 29°58' W 093°52'0 0.0
2018-Feb-15 13:00N 29°58' W 093°52'0 0.0
2018-Feb-15 12:30N 29°58' W 093°52'0 0.0
2018-Feb-15 12:00N 29°58' W 093°52'0 0.0
2018-Feb-15 11:30N 29°58' W 093°52'0 0.0
2018-Feb-15 11:00N 29°58' W 093°52'0 0.0
2018-Feb-15 10:30N 29°58' W 093°52'0 0.0
2018-Feb-15 10:00N 29°58' W 093°52'0 0.0
2018-Feb-15 09:30N 29°58' W 093°52'0 0.0
2018-Feb-15 09:00N 29°58' W 093°52'0 0.0
2018-Feb-15 08:30N 29°58' W 093°52'0 0.0
2018-Feb-15 08:00N 29°58' W 093°52'0 0.0
2018-Feb-15 07:30N 29°58' W 093°52'0 0.0
2018-Feb-15 07:00N 29°58' W 093°52'0 0.0
2018-Feb-15 06:30N 29°58' W 093°52'0 0.0
2018-Feb-15 06:00N 29°58' W 093°52'0 0.0
2018-Feb-15 05:30N 29°58' W 093°52'0 0.0
2018-Feb-15 05:00N 29°58' W 093°52'0 0.0
2018-Feb-15 04:30N 29°58' W 093°52'0 0.0
2018-Feb-15 04:00N 29°58' W 093°52'0 0.0
2018-Feb-15 03:30N 29°58' W 093°52'0 0.0
2018-Feb-15 03:00N 29°58' W 093°52'0 0.0
2018-Feb-15 02:30N 29°58' W 093°52'0 0.0
2018-Feb-15 02:00N 29°58' W 093°52'0 0.0
2018-Feb-15 01:30N 29°58' W 093°52'0 0.0
2018-Feb-15 01:00N 29°58' W 093°52'0 0.0
2018-Feb-15 00:30N 29°58' W 093°52'0 0.0
2018-Feb-15 00:00N 29°58' W 093°52'0 0.0
2018-Feb-14 23:30N 29°58' W 093°52'0 0.0
2018-Feb-14 23:00N 29°58' W 093°52'0 0.0
2018-Feb-14 22:30N 29°58' W 093°52'0 0.0
2018-Feb-14 22:00N 29°58' W 093°52'0 0.0
2018-Feb-14 21:30N 29°58' W 093°52'0 0.0
2018-Feb-14 21:00N 29°58' W 093°52'0 0.0
2018-Feb-14 20:30N 29°58' W 093°52'0 0.0
2018-Feb-14 20:00N 29°58' W 093°52'0 0.2
2018-Feb-14 19:30N 29°58' W 093°52'0 0.2
2018-Feb-14 19:00N 29°58' W 093°52'0 0.0
2018-Feb-14 18:30N 29°58' W 093°52'0 0.0
2018-Feb-14 18:00N 29°58' W 093°52'0 0.0
2018-Feb-14 17:30N 29°58' W 093°52'0 0.0
2018-Feb-14 17:00N 29°58' W 093°52'0 0.0
2018-Feb-14 16:30N 29°58' W 093°52'0 0.0
2018-Feb-14 16:00N 29°58' W 093°52'0 0.0
2018-Feb-14 15:30N 29°58' W 093°52'0 0.0
2018-Feb-14 15:00N 29°58' W 093°52'0 0.0
2018-Feb-14 14:30N 29°58' W 093°52'0 0.0
2018-Feb-14 14:00N 29°58' W 093°52'0 0.0
2018-Feb-14 13:30N 29°58' W 093°52'0 0.0
2018-Feb-14 13:00N 29°58' W 093°52'0 0.0
2018-Feb-14 12:30N 29°58' W 093°52'0 0.0
2018-Feb-14 12:00N 29°58' W 093°52'0 0.0
2018-Feb-14 11:30N 29°58' W 093°52'0 0.0
2018-Feb-14 11:00N 29°58' W 093°52'0 0.0
2018-Feb-14 10:30N 29°58' W 093°52'0 0.0
2018-Feb-14 10:00N 29°58' W 093°52'0 0.0
2018-Feb-14 09:30N 29°58' W 093°52'0 0.0
2018-Feb-14 09:00N 29°58' W 093°52'0 0.0
2018-Feb-14 08:30N 29°58' W 093°52'0 0.0
2018-Feb-14 08:00N 29°58' W 093°52'0 0.0
2018-Feb-14 07:30N 29°58' W 093°52'0 0.0
2018-Feb-14 07:00N 29°58' W 093°52'0 0.0
2018-Feb-14 06:30N 29°58' W 093°52'0 0.0
2018-Feb-14 06:00N 29°58' W 093°52'0 0.0
2018-Feb-14 05:29N 29°58' W 093°52'0 0.0
2018-Feb-14 05:00N 29°58' W 093°52'0 0.0
2018-Feb-14 04:30N 29°58' W 093°52'0 0.0
2018-Feb-14 04:00N 29°58' W 093°52'0 0.0
2018-Feb-14 03:30N 29°58' W 093°52'0 0.0
2018-Feb-14 03:00N 29°58' W 093°52'0 0.0
2018-Feb-14 02:30N 29°58' W 093°52'0 0.0
2018-Feb-14 02:00N 29°58' W 093°52'0 0.0
2018-Feb-14 01:30N 29°58' W 093°52'0 0.0
2018-Feb-14 01:00N 29°58' W 093°52'0 0.0
2018-Feb-14 00:30N 29°58' W 093°52'0 0.1
2018-Feb-14 00:01N 29°58' W 093°52'0 0.1
2018-Feb-13 23:30N 29°58' W 093°52'0 0.0
2018-Feb-13 23:00N 29°58' W 093°52'0 0.0
2018-Feb-13 22:30N 29°58' W 093°52'0 0.0
2018-Feb-13 22:00N 29°58' W 093°52'0 0.0
2018-Feb-13 21:30N 29°58' W 093°52'0 0.0
2018-Feb-13 21:00N 29°58' W 093°52'0 0.0
2018-Feb-13 20:30N 29°58' W 093°52'0 0.0
2018-Feb-13 20:00N 29°58' W 093°52'0 0.0
2018-Feb-13 19:30N 29°58' W 093°52'0 0.0
2018-Feb-13 19:00N 29°58' W 093°52'0 0.0
2018-Feb-13 18:30N 29°58' W 093°52'0 0.0
2018-Feb-13 18:00N 29°58' W 093°52'0 0.0
2018-Feb-13 17:30N 29°58' W 093°52'0 0.0
2018-Feb-13 17:00N 29°58' W 093°52'0 0.0
2018-Feb-13 16:30N 29°58' W 093°52'0 0.0
2018-Feb-13 16:00N 29°58' W 093°52'0 0.0
2018-Feb-13 15:30N 29°58' W 093°52'0 0.0
2018-Feb-13 15:00N 29°58' W 093°52'0 0.0
2018-Feb-13 14:30N 29°58' W 093°52'0 0.0
2018-Feb-13 14:00N 29°58' W 093°52'0 0.0
2018-Feb-13 13:30N 29°58' W 093°52'0 0.0
2018-Feb-13 13:00N 29°58' W 093°52'0 0.0
2018-Feb-13 12:30N 29°58' W 093°52'0 0.0
2018-Feb-13 12:00N 29°58' W 093°52'0 0.0
2018-Feb-13 11:30N 29°58' W 093°52'0 0.0
2018-Feb-13 11:00N 29°58' W 093°52'0 0.0
2018-Feb-13 10:30N 29°58' W 093°52'0 0.0
2018-Feb-13 10:00N 29°58' W 093°52'0 0.0
2018-Feb-13 09:30N 29°58' W 093°52'0 0.0
2018-Feb-13 09:00N 29°58' W 093°52'0 0.0
2018-Feb-13 08:30N 29°58' W 093°52'0 0.0
2018-Feb-13 08:00N 29°58' W 093°52'0 0.0
2018-Feb-13 07:30N 29°58' W 093°52'0 0.0
2018-Feb-13 07:00N 29°58' W 093°52'0 0.0
2018-Feb-13 06:30N 29°58' W 093°52'0 0.0
2018-Feb-13 06:00N 29°58' W 093°52'0 0.0
2018-Feb-13 05:30N 29°58' W 093°52'0 0.0
2018-Feb-13 05:00N 29°58' W 093°52'0 0.0
2018-Feb-13 04:30N 29°58' W 093°52'0 0.0
2018-Feb-13 04:00N 29°58' W 093°52'0 0.0
2018-Feb-13 03:30N 29°58' W 093°52'0 0.0
2018-Feb-13 03:00N 29°58' W 093°52'0 0.0
2018-Feb-13 02:30N 29°58' W 093°52'0 0.0
2018-Feb-13 02:00N 29°58' W 093°52'0 0.0
2018-Feb-13 01:30N 29°58' W 093°52'0 0.0
2018-Feb-13 01:00N 29°58' W 093°52'0 0.0
2018-Feb-13 00:30N 29°58' W 093°52'0 0.0
2018-Feb-13 00:00N 29°58' W 093°52'0 0.0
2018-Feb-12 23:30N 29°58' W 093°52'0 0.0
2018-Feb-12 23:00N 29°58' W 093°52'0 0.0
2018-Feb-12 22:30N 29°58' W 093°52'0 0.0
2018-Feb-12 22:00N 29°58' W 093°52'0 0.0
2018-Feb-12 21:30N 29°58' W 093°52'0 0.0
2018-Feb-12 21:00N 29°58' W 093°52'0 0.0
2018-Feb-12 20:30N 29°58' W 093°52'0 0.3
2018-Feb-12 20:00N 29°58' W 093°51'0 0.0
2018-Feb-12 19:31N 29°58' W 093°51'0 0.0
2018-Feb-12 19:00N 29°58' W 093°51'0 0.0
2018-Feb-12 18:30N 29°58' W 093°51'0 0.3
2018-Feb-12 18:00N 29°58' W 093°52'0 0.0
2018-Feb-12 17:30N 29°58' W 093°52'0 0.0
2018-Feb-12 17:00N 29°58' W 093°52'0 0.0
2018-Feb-12 16:30N 29°58' W 093°52'0 0.0
2018-Feb-12 16:00N 29°58' W 093°52'0 0.0
2018-Feb-12 15:30N 29°58' W 093°52'1 2.3
2018-Feb-12 15:00N 29°59' W 093°52'3 7.0
2018-Feb-12 14:30N 29°60' W 093°56'3 5.6
2018-Feb-12 14:00N 30°01' W 093°59'3 5.6
2018-Feb-12 13:30N 30°03' W 094°02'3 6.1
2018-Feb-12 13:00N 30°05' W 094°04'1 1.4
2018-Feb-12 12:30N 30°05' W 094°05'0 0.0
2018-Feb-12 12:00N 30°05' W 094°05'0 0.0
2018-Feb-12 11:30N 30°05' W 094°05'0 0.0
2018-Feb-12 11:00N 30°05' W 094°05'0 0.0
2018-Feb-12 10:30N 30°05' W 094°05'0 0.0
2018-Feb-12 10:00N 30°05' W 094°05'0 0.0
2018-Feb-12 09:30N 30°05' W 094°05'0 0.0
2018-Feb-12 09:00N 30°05' W 094°05'0 0.0
2018-Feb-12 08:30N 30°05' W 094°05'0 0.0
2018-Feb-12 08:00N 30°05' W 094°05'0 0.0
2018-Feb-12 07:30N 30°05' W 094°05'0 0.0
2018-Feb-12 07:00N 30°05' W 094°05'0 0.0
2018-Feb-12 06:30N 30°05' W 094°05'0 0.0
2018-Feb-12 06:00N 30°05' W 094°05'0 0.0
2018-Feb-12 05:30N 30°05' W 094°05'0 0.0
2018-Feb-12 05:00N 30°05' W 094°05'0 0.0
2018-Feb-12 04:30N 30°05' W 094°05'0 0.0
2018-Feb-12 04:00N 30°05' W 094°05'0 0.0
2018-Feb-12 03:30N 30°05' W 094°05'0 0.0
2018-Feb-12 03:00N 30°05' W 094°05'0 0.0
2018-Feb-12 02:30N 30°05' W 094°05'0 0.0
2018-Feb-12 02:00N 30°05' W 094°05'0 0.0
2018-Feb-12 01:30N 30°05' W 094°05'0 0.0
2018-Feb-12 01:00N 30°05' W 094°05'0 0.0
2018-Feb-12 00:30N 30°05' W 094°05'0 0.0
2018-Feb-12 00:00N 30°05' W 094°05'0 0.0
2018-Feb-11 23:30N 30°05' W 094°05'0 0.0
2018-Feb-11 23:00N 30°05' W 094°05'0 0.0
2018-Feb-11 22:30N 30°05' W 094°05'0 0.0
2018-Feb-11 22:00N 30°05' W 094°05'0 0.0
2018-Feb-11 21:30N 30°05' W 094°05'0 0.0
2018-Feb-11 21:00N 30°05' W 094°05'0 0.0
2018-Feb-11 20:26N 30°05' W 094°05'0 0.0
2018-Feb-11 20:00N 30°05' W 094°05'0 0.0
2018-Feb-11 19:30N 30°05' W 094°05'0 0.4
2018-Feb-11 19:00N 30°05' W 094°05'2 4.2
2018-Feb-11 18:30N 30°04' W 094°03'2 3.9
2018-Feb-11 18:00N 30°02' W 094°02'2 3.3
2018-Feb-11 17:30N 30°01' W 094°01'2 4.8
2018-Feb-11 17:00N 30°01' W 093°58'2 4.3
2018-Feb-11 16:30N 29°59' W 093°56'2 4.8
2018-Feb-11 16:00N 29°59' W 093°53'1 2.8
2018-Feb-11 15:30N 29°59' W 093°52'2 3.6
2018-Feb-11 15:01N 29°57' W 093°52'1 1.3
2018-Feb-11 14:30N 29°57' W 093°52'0 0.0
2018-Feb-11 14:00N 29°57' W 093°52'0 0.0
2018-Feb-11 13:30N 29°57' W 093°52'0 0.0
2018-Feb-11 13:00N 29°57' W 093°52'0 0.0
2018-Feb-11 12:30N 29°57' W 093°52'0 0.0
2018-Feb-11 12:00N 29°57' W 093°52'0 0.0
2018-Feb-11 11:30N 29°57' W 093°52'0 0.0
2018-Feb-11 11:00N 29°57' W 093°52'0 0.0
2018-Feb-11 10:30N 29°57' W 093°52'0 0.0
2018-Feb-11 10:00N 29°57' W 093°52'0 0.0
2018-Feb-11 09:30N 29°57' W 093°52'0 0.0
2018-Feb-11 09:00N 29°57' W 093°52'0 0.0
2018-Feb-11 08:30N 29°57' W 093°52'  

Dump ship's entire track history